Informes de METAR cercanos

 

LEXJ - Santander/Parayas, Spain
Distance from station: ESE 6km
Actualización: 20/06/2021 02:00
Parcialmente nuboso
Parcialmente nuboso
 Viento del E
Viento: E 6 km/h
Temperatura: 17°C
Rocío: 14°C
Humedad: 83%
Barómetro: 1010 hPa
Clouds: Parcialmente nuboso
Visibilidad: 8 km
2021/06/20 00:00 LEXJ 200000Z AUTO 10003KT 8000 NSC 17/14 Q1010
LEBB - Bilbao/Sondica, Spain
Distance from station: ESE 80km
Actualización: 20/06/2021 02:00
Few Clouds
Few Clouds
 Viento del SE
Viento: SE 9 km/h
Temperatura: 18°C
Rocío: 16°C
Humedad: 88%
Barómetro: 1011 hPa
Clouds: Few Clouds
Visibilidad: 10 km
Cloud details: Few Clouds 610 m
2021/06/20 00:00 LEBB 200000Z AUTO 13005KT 100V160 9999 FEW020 18/16 Q1011
 
LEBL - Barcelona Airpor, Spain
Distance from station: ESE 726km
Actualización: 20/06/2021 02:00
Few Clouds
Few Clouds
 Viento del NNO
Viento: NNO 9 km/h
Temperatura: 23°C
Rocío: 20°C
Humedad: 83%
Barómetro: 1011 hPa
Clouds: Few Clouds
Visibilidad: 10 km
Cloud details: Few Clouds 610 m
2021/06/20 00:00 LEBL 200000Z 33005KT 9999 FEW020 23/20 Q1011 NOSIG
LEMD - Madrid/Barajas, Spain
Distance from station: S 325km
Actualización: 20/06/2021 02:00
Parcialmente nuboso
Parcialmente nuboso
 Viento del SO
Viento: SO 13 km/h
Temperatura: 20°C
Rocío: 8°C
Humedad: 46%
Barómetro: 1014 hPa
Clouds: Parcialmente nuboso
Visibilidad: 10 km
Cloud details: Parcialmente nuboso 2286 m
2021/06/20 00:00 LEMD 200000Z 22007KT 9999 SCT075 20/08 Q1014 NOSIG
 
LPPT - Lisbon/Portela, Portugal
Distance from station: SO 663km
Actualización: 20/06/2021 02:00
Muy nuboso
Muy nuboso
 Viento del SSO
Viento: SSO 15 km/h
Temperatura: 16°C
Rocío: 11°C
Humedad: 72%
Barómetro: 1016 hPa
Clouds: Muy nuboso
Visibilidad: 10 km
Cloud details: Muy nuboso 792 m
2021/06/20 00:00 LPPT 200000Z 21008KT 9999 BKN026 16/11 Q1016
LECO - La Coruna/Alvedr, Spain
Distance from station: O 349km
Actualización: 20/06/2021 02:00
Despejado
Despejado
 Viento del S
Viento: S 28 km/h, Racha: 48 km/h
Temperatura: 14°C
Rocío: 10°C
Humedad: 77%
Barómetro: 1008 hPa
Resumen: Despejado
Visibilidad: greater than 10 km
2021/06/20 00:00 LECO 200000Z AUTO 17015G26KT 140V210 CAVOK 14/10 Q1008
 
LEST - Santiago/Labacol, Spain
Distance from station: O 358km
Actualización: 20/06/2021 02:00
Muy nuboso
Muy nuboso
 Viento del SSO
Viento: SSO 22 km/h
Temperatura: 11°C
Rocío: 9°C
Humedad: 88%
Barómetro: 1010 hPa
Clouds: Muy nuboso
Visibilidad: 10 km
Cloud details: Parcialmente nuboso 427 m
Muy nuboso 671 m
2021/06/20 00:00 LEST 200000Z 21012KT 170V230 9999 SCT014 BKN022 11/09 Q1010 TEMPO 3000 -RA BKN005
EBBR - Brussels International Airport, Belgium
Distance from station: O 1339km
Actualización: 20/06/2021 01:50
Mist, Muy nuboso
Mist, Muy nuboso
 Viento del NO
Viento: NO 17 km/h
Temperatura: 17°C
Rocío: 15°C
Humedad: 88%
Barómetro: 1007 hPa
Resumen: Mist
Clouds: Muy nuboso
Visibilidad: 4 km
Cloud details: Muy nuboso 152 m
2021/06/19 23:50 EBBR 192350Z 31009KT 3500 BR BKN005 17/15 Q1007 TEMPO 2000 BR